Time;durP1;ratioP1;P1;durP2;ratioP2;P2;SDS_P1;SDS_P2;PMS_P1;PMS_P2;Temp;Humidity;BMP_temperature;BMP_pressure;BME280_temperature;BME280_humidity;BME280_pressure;Samples;Min_cycle;Max_cycle;Signal;HPM_P1;HPM_P2
2022/08/19 00:00:22;;;;;;;11.23;7.10;;;19.80;99.90;;;;;;5076025;28;20449;-78
2022/08/19 00:02:49;;;;;;;13.53;8.17;;;19.80;99.90;;;;;;5064424;28;20532;-82
2022/08/19 00:05:16;;;;;;;10.87;6.40;;;19.80;99.90;;;;;;5071864;28;20451;-79
2022/08/19 00:07:45;;;;;;;10.57;6.60;;;19.80;99.90;;;;;;5054061;28;20451;-86
2022/08/19 00:10:16;;;;;;;8.70;6.60;;;19.80;99.90;;;;;;5066581;28;20476;-86
2022/08/19 00:12:43;;;;;;;9.27;7.13;;;19.80;99.90;;;;;;5056205;28;20479;-81
2022/08/19 00:15:15;;;;;;;10.57;7.33;;;19.90;99.90;;;;;;5062743;28;20457;-80
2022/08/19 00:17:44;;;;;;;12.40;8.17;;;19.90;99.90;;;;;;5063742;28;20476;-82
2022/08/19 00:20:21;;;;;;;10.63;9.40;;;19.80;99.90;;;;;;5061103;28;20491;-80
2022/08/19 00:22:49;;;;;;;13.33;8.60;;;19.80;99.90;;;;;;5045254;28;20453;-77
2022/08/19 00:25:18;;;;;;;15.33;9.03;;;19.80;99.90;;;;;;5058577;28;20469;-82
2022/08/19 00:27:45;;;;;;;9.70;7.90;;;19.80;99.90;;;;;;5050227;28;20452;-82
2022/08/19 00:30:12;;;;;;;13.20;8.60;;;19.70;99.90;;;;;;5058444;28;20832;-79
2022/08/19 00:32:40;;;;;;;14.20;8.30;;;19.70;99.90;;;;;;5055890;28;20471;-81
2022/08/19 00:35:09;;;;;;;8.83;7.90;;;19.70;99.90;;;;;;5054916;28;20977;-84
2022/08/19 00:37:36;;;;;;;8.43;7.63;;;19.70;99.90;;;;;;5039674;28;20454;-78
2022/08/19 00:40:07;;;;;;;7.23;6.30;;;19.60;99.90;;;;;;5046653;28;20438;-79
2022/08/19 00:42:34;;;;;;;11.73;7.83;;;19.70;99.90;;;;;;5060600;28;20502;-80
2022/08/19 00:45:09;;;;;;;8.93;7.30;;;19.70;99.90;;;;;;5069857;28;20434;-80
2022/08/19 00:47:36;;;;;;;5.83;5.30;;;19.80;99.90;;;;;;5058065;28;20517;-84
2022/08/19 00:50:03;;;;;;;7.40;4.30;;;19.70;99.90;;;;;;5056635;28;20439;-79
2022/08/19 00:52:36;;;;;;;5.30;4.57;;;19.70;99.90;;;;;;5058357;28;20528;-80
2022/08/19 00:55:11;;;;;;;6.80;5.10;;;19.70;99.90;;;;;;5065140;28;20478;-83
2022/08/19 00:57:41;;;;;;;8.47;7.10;;;19.70;99.90;;;;;;5039067;28;20453;-81
2022/08/19 01:00:11;;;;;;;9.40;5.77;;;19.80;99.90;;;;;;5064797;28;20437;-80
2022/08/19 01:02:39;;;;;;;8.33;6.47;;;19.80;99.90;;;;;;5061745;28;20464;-83
2022/08/19 01:05:11;;;;;;;8.43;6.80;;;19.80;99.90;;;;;;5064402;28;20449;-80
2022/08/19 01:07:41;;;;;;;10.10;9.00;;;19.80;99.90;;;;;;5046908;28;20527;-80
2022/08/19 01:10:21;;;;;;;14.90;11.10;;;19.90;99.90;;;;;;5057167;28;20887;-80
2022/08/19 01:12:48;;;;;;;13.37;10.23;;;19.90;99.90;;;;;;5048477;28;20620;-78
2022/08/19 01:15:19;;;;;;;12.33;11.00;;;19.90;99.90;;;;;;5052929;28;20479;-82
2022/08/19 01:17:46;;;;;;;9.97;8.90;;;19.90;99.90;;;;;;5061543;28;20469;-84
2022/08/19 01:20:18;;;;;;;11.40;9.50;;;19.90;99.90;;;;;;5047049;28;20480;-79
2022/08/19 01:22:49;;;;;;;9.60;8.60;;;19.90;99.90;;;;;;5053613;28;20442;-83
2022/08/19 01:25:22;;;;;;;14.30;9.20;;;19.80;99.90;;;;;;5060281;28;20438;-78
2022/08/19 01:27:51;;;;;;;9.67;8.13;;;19.80;99.90;;;;;;5059490;28;20445;-79
2022/08/19 01:30:23;;;;;;;13.37;7.77;;;19.80;99.90;;;;;;5059030;28;20461;-84
2022/08/19 01:32:51;;;;;;;6.83;6.13;;;19.80;99.90;;;;;;5058835;28;20849;-82
2022/08/19 01:35:19;;;;;;;8.20;6.00;;;19.80;99.90;;;;;;5063202;28;20445;-76
2022/08/19 01:37:52;;;;;;;8.93;6.93;;;19.90;99.90;;;;;;5075656;28;20458;-77
2022/08/19 01:40:30;;;;;;;11.50;6.50;;;19.90;99.90;;;;;;5073311;28;20445;-80
2022/08/19 01:42:58;;;;;;;9.00;8.00;;;19.90;99.90;;;;;;5073825;28;20490;-78
2022/08/19 01:45:40;;;;;;;14.93;9.47;;;20.00;99.90;;;;;;5075688;28;20449;-78
2022/08/19 01:48:08;;;;;;;8.77;6.53;;;20.00;99.90;;;;;;5071756;28;20449;-79
2022/08/19 01:50:36;;;;;;;9.00;6.20;;;20.00;99.90;;;;;;5078213;28;20457;-84
2022/08/19 01:53:10;;;;;;;8.83;5.93;;;20.00;99.90;;;;;;5076475;28;20489;-80
2022/08/19 01:55:40;;;;;;;8.57;7.10;;;19.90;99.90;;;;;;5071508;28;20448;-79
2022/08/19 01:58:21;;;;;;;10.93;8.43;;;19.90;99.90;;;;;;5081145;28;20453;-80
2022/08/19 02:00:49;;;;;;;11.03;7.87;;;19.90;99.90;;;;;;5062382;28;20419;-80
2022/08/19 02:03:16;;;;;;;9.33;7.97;;;19.90;99.90;;;;;;5059559;28;20881;-84
2022/08/19 02:05:45;;;;;;;9.40;8.20;;;19.90;99.90;;;;;;5068714;28;20461;-80
2022/08/19 02:08:23;;;;;;;12.83;11.50;;;19.90;99.90;;;;;;5060093;28;20501;-80
2022/08/19 02:10:50;;;;;;;15.67;12.67;;;19.80;99.90;;;;;;5048968;28;20444;-82
2022/08/19 02:13:26;;;;;;;12.90;10.20;;;19.70;99.90;;;;;;5054742;28;20494;-83
2022/08/19 02:15:53;;;;;;;14.30;10.40;;;19.70;99.90;;;;;;5055631;28;20495;-82
2022/08/19 02:18:20;;;;;;;13.90;10.70;;;19.60;99.90;;;;;;5055100;28;20509;-83
2022/08/19 02:20:47;;;;;;;11.07;10.07;;;19.60;99.90;;;;;;5057845;28;20869;-82
2022/08/19 02:23:16;;;;;;;15.30;10.67;;;19.60;99.90;;;;;;5064437;28;20466;-81
2022/08/19 02:25:49;;;;;;;14.43;10.47;;;19.60;99.90;;;;;;5055058;28;20468;-78
2022/08/19 02:28:17;;;;;;;13.67;11.20;;;19.60;99.90;;;;;;5046427;28;20451;-80
2022/08/19 02:30:44;;;;;;;18.03;11.60;;;19.60;99.90;;;;;;5064804;28;20955;-83
2022/08/19 02:33:13;;;;;;;13.93;12.43;;;19.60;99.90;;;;;;5050896;28;20547;-82
2022/08/19 02:35:43;;;;;;;13.03;11.60;;;19.50;99.90;;;;;;5056248;28;20461;-84
2022/08/19 02:38:29;;;;;;;17.93;11.63;;;19.50;99.90;;;;;;5059157;28;20955;-79
2022/08/19 02:40:59;;;;;;;15.83;12.37;;;19.50;99.90;;;;;;5058904;28;20517;-84
2022/08/19 02:43:30;;;;;;;13.53;12.10;;;19.50;99.90;;;;;;5074157;28;20453;-79
2022/08/19 02:45:58;;;;;;;18.93;12.50;;;19.50;99.90;;;;;;5073088;28;20923;-78
2022/08/19 02:48:26;;;;;;;15.97;12.90;;;19.50;99.90;;;;;;5078831;28;20528;-80
2022/08/19 02:50:55;;;;;;;12.03;10.73;;;19.50;99.90;;;;;;5067567;28;20426;-82
2022/08/19 02:53:27;;;;;;;15.23;12.67;;;19.40;99.90;;;;;;5066040;28;20512;-80
2022/08/19 02:55:59;;;;;;;16.63;13.33;;;19.40;99.90;;;;;;5053016;28;20517;-85
2022/08/19 02:58:26;;;;;;;15.13;11.97;;;19.50;99.90;;;;;;5060101;28;20448;-79
2022/08/19 03:00:56;;;;;;;20.10;13.63;;;19.50;99.90;;;;;;5062408;28;20453;-83
2022/08/19 03:03:23;;;;;;;15.50;11.97;;;19.50;99.90;;;;;;5059423;28;20468;-82
2022/08/19 03:05:50;;;;;;;13.20;11.87;;;19.50;99.90;;;;;;5055039;28;20445;-83
2022/08/19 03:08:17;;;;;;;14.83;12.47;;;19.50;99.90;;;;;;5065613;28;20456;-81
2022/08/19 03:10:46;;;;;;;14.83;12.80;;;19.50;99.90;;;;;;5058820;28;20431;-79
2022/08/19 03:13:26;;;;;;;14.90;11.67;;;19.40;99.90;;;;;;5058968;28;20577;-81
2022/08/19 03:15:53;;;;;;;16.27;12.80;;;19.40;99.90;;;;;;5054945;28;20441;-84
2022/08/19 03:18:22;;;;;;;15.43;13.20;;;19.40;99.90;;;;;;5058034;28;20430;-79
2022/08/19 03:20:53;;;;;;;13.90;11.90;;;19.40;99.90;;;;;;5058528;28;20521;-81
2022/08/19 03:23:38;;;;;;;17.07;11.20;;;19.40;99.90;;;;;;5058971;28;20478;-82
2022/08/19 03:26:06;;;;;;;17.37;12.27;;;19.50;99.90;;;;;;5067143;28;20443;-79
2022/08/19 03:28:51;;;;;;;16.83;14.40;;;19.40;99.90;;;;;;5062159;28;20886;-83
2022/08/19 03:31:22;;;;;;;13.17;11.73;;;19.40;99.90;;;;;;5059318;28;20447;-80
2022/08/19 03:33:52;;;;;;;13.63;11.17;;;19.40;99.90;;;;;;5068178;28;20484;-83
2022/08/19 03:36:23;;;;;;;12.87;11.00;;;19.40;99.90;;;;;;5066496;28;20450;-80
2022/08/19 03:38:54;;;;;;;12.73;9.87;;;19.40;99.90;;;;;;5053441;28;20441;-80
2022/08/19 03:41:23;;;;;;;11.17;10.07;;;19.40;99.90;;;;;;5065917;28;20453;-80
2022/08/19 03:43:54;;;;;;;14.10;9.90;;;19.40;99.90;;;;;;5075448;28;20903;-83
2022/08/19 03:46:22;;;;;;;9.73;8.83;;;19.40;99.90;;;;;;5050799;28;20461;-81
2022/08/19 03:48:53;;;;;;;14.37;9.77;;;19.40;99.90;;;;;;5065857;28;20431;-81
2022/08/19 03:51:27;;;;;;;11.90;9.03;;;19.40;99.90;;;;;;5060353;28;20530;-78
2022/08/19 03:53:55;;;;;;;11.13;10.00;;;19.40;99.90;;;;;;5067479;28;20481;-78
2022/08/19 03:56:25;;;;;;;10.20;9.03;;;19.40;99.90;;;;;;5069491;28;20475;-83
2022/08/19 03:58:57;;;;;;;13.70;9.40;;;19.30;99.90;;;;;;5062599;28;20481;-81
2022/08/19 04:01:26;;;;;;;16.33;9.27;;;19.30;99.90;;;;;;5057877;28;20457;-79
2022/08/19 04:03:54;;;;;;;11.30;9.67;;;19.30;99.90;;;;;;5063016;28;20476;-78
2022/08/19 04:06:25;;;;;;;16.13;11.07;;;19.20;99.90;;;;;;5065556;28;20469;-78
2022/08/19 04:08:55;;;;;;;19.60;12.37;;;19.20;99.90;;;;;;5057450;28;20516;-82
2022/08/19 04:11:27;;;;;;;14.87;11.90;;;19.20;99.90;;;;;;5057000;28;20858;-82
2022/08/19 04:13:56;;;;;;;18.90;12.90;;;19.20;99.90;;;;;;5060972;28;20581;-78
2022/08/19 04:16:28;;;;;;;17.77;16.03;;;19.20;99.90;;;;;;5061805;28;20458;-82
2022/08/19 04:18:55;;;;;;;19.90;17.87;;;19.20;99.90;;;;;;5056895;28;20453;-82
2022/08/19 04:21:26;;;;;;;23.80;19.03;;;19.20;99.90;;;;;;5058245;28;20455;-81
2022/08/19 04:23:54;;;;;;;19.50;17.20;;;19.10;99.90;;;;;;5054690;28;20497;-79
2022/08/19 04:26:27;;;;;;;17.43;14.87;;;19.00;99.90;;;;;;5059497;28;20471;-80
2022/08/19 04:28:54;;;;;;;19.93;17.30;;;19.10;99.90;;;;;;5060962;28;20450;-81
2022/08/19 04:31:31;;;;;;;18.03;15.53;;;19.00;99.90;;;;;;5056174;28;20486;-79
2022/08/19 04:34:01;;;;;;;25.57;18.03;;;19.00;99.90;;;;;;5059775;28;20517;-81
2022/08/19 04:36:31;;;;;;;16.70;14.97;;;19.00;99.90;;;;;;5059812;28;21223;-80
2022/08/19 04:39:03;;;;;;;15.70;14.03;;;19.00;99.90;;;;;;5063283;28;20469;-79
2022/08/19 04:44:17;;;;;;;19.70;15.03;;;19.00;99.90;;;;;;5070099;28;20453;-79
2022/08/19 04:46:49;;;;;;;23.07;14.70;;;19.00;99.90;;;;;;5064984;28;20444;-84
2022/08/19 04:49:19;;;;;;;15.67;14.07;;;19.10;99.90;;;;;;5065779;28;20450;-81
2022/08/19 04:51:49;;;;;;;22.43;14.10;;;19.00;99.90;;;;;;5048898;28;20472;-81
2022/08/19 04:54:17;;;;;;;17.60;14.10;;;19.00;99.90;;;;;;5055420;28;20950;-82
2022/08/19 04:56:44;;;;;;;20.03;13.43;;;18.90;99.90;;;;;;5049528;28;20869;-81
2022/08/19 04:59:11;;;;;;;19.37;15.90;;;18.90;99.90;;;;;;5055129;28;20449;-83
2022/08/19 05:01:38;;;;;;;17.13;14.93;;;18.80;99.90;;;;;;5059240;28;20444;-81
2022/08/19 05:04:08;;;;;;;18.17;15.47;;;18.80;99.90;;;;;;5051046;28;20495;-81
2022/08/19 05:06:38;;;;;;;15.60;13.20;;;18.80;99.90;;;;;;5047974;28;20480;-79
2022/08/19 05:09:10;;;;;;;18.80;14.30;;;18.80;99.90;;;;;;5059968;28;20455;-80
2022/08/19 05:11:39;;;;;;;16.47;12.60;;;18.80;99.90;;;;;;5053909;28;20458;-81
2022/08/19 05:14:07;;;;;;;15.20;12.83;;;18.90;99.90;;;;;;5055567;28;20490;-80
2022/08/19 05:16:34;;;;;;;17.60;14.03;;;18.80;99.90;;;;;;5054937;28;20533;-80
2022/08/19 05:24:33;;;;;;;25.53;16.40;;;18.90;99.90;;;;;;5056613;28;20453;-79
2022/08/19 05:27:02;;;;;;;17.87;15.93;;;19.00;99.90;;;;;;5055977;28;21022;-80
2022/08/19 05:29:31;;;;;;;26.23;17.43;;;19.00;99.90;;;;;;5059387;28;20442;-81
2022/08/19 05:31:59;;;;;;;26.90;18.30;;;19.00;99.90;;;;;;5076122;28;20438;-82
2022/08/19 05:34:27;;;;;;;23.93;17.60;;;19.00;99.90;;;;;;5076384;28;20477;-78
2022/08/19 05:36:58;;;;;;;27.70;18.27;;;18.90;99.90;;;;;;5074200;28;20439;-80
2022/08/19 05:39:28;;;;;;;23.60;18.10;;;18.90;99.90;;;;;;5061181;28;20470;-80
2022/08/19 05:41:57;;;;;;;25.80;19.03;;;19.00;99.90;;;;;;5046603;28;20451;-80
2022/08/19 05:44:26;;;;;;;27.13;19.60;;;19.20;99.90;;;;;;5056273;28;20485;-80
2022/08/19 05:46:54;;;;;;;27.43;18.13;;;19.40;99.90;;;;;;5067194;28;20512;-77
2022/08/19 05:49:22;;;;;;;22.90;17.67;;;19.90;99.90;;;;;;5056298;28;20446;-78
2022/08/19 05:51:50;;;;;;;23.03;17.17;;;20.30;99.90;;;;;;5054674;28;20535;-77
2022/08/19 05:54:19;;;;;;;31.07;18.73;;;20.60;99.90;;;;;;5048269;28;20520;-76
2022/08/19 05:56:48;;;;;;;27.97;17.73;;;20.90;99.90;;;;;;5050737;28;20444;-77
2022/08/19 05:59:17;;;;;;;26.70;18.80;;;21.20;99.90;;;;;;5062659;28;20955;-78
2022/08/19 06:01:46;;;;;;;23.20;18.17;;;21.60;99.90;;;;;;5062378;28;20469;-76
2022/08/19 06:04:14;;;;;;;27.23;20.23;;;22.40;99.90;;;;;;5068565;28;20461;-77
2022/08/19 06:06:41;;;;;;;31.07;19.83;;;23.40;99.90;;;;;;5059233;28;20464;-78
2022/08/19 06:09:09;;;;;;;26.60;20.83;;;24.30;99.90;;;;;;5050279;28;20446;-80
2022/08/19 06:11:43;;;;;;;26.33;17.27;;;25.10;99.90;;;;;;5048883;28;20453;-78
2022/08/19 06:14:12;;;;;;;28.90;18.00;;;25.40;99.90;;;;;;5048427;28;21007;-79
2022/08/19 06:16:40;;;;;;;25.97;20.13;;;26.10;99.90;;;;;;5056915;28;20450;-78
2022/08/19 06:19:09;;;;;;;26.73;19.63;;;26.80;99.30;;;;;;5057139;28;20481;-80
2022/08/19 06:21:38;;;;;;;41.90;22.47;;;27.20;97.50;;;;;;5060703;28;20483;-77
2022/08/19 06:24:09;;;;;;;30.80;20.20;;;26.90;96.90;;;;;;5059373;28;21024;-77
2022/08/19 06:26:39;;;;;;;27.97;20.40;;;26.40;98.20;;;;;;5057902;28;20442;-76
2022/08/19 06:29:11;;;;;;;26.23;17.77;;;26.40;97.80;;;;;;5052126;28;20441;-79
2022/08/19 06:31:41;;;;;;;26.73;20.40;;;26.60;97.80;;;;;;5048586;28;20450;-76
2022/08/19 06:34:08;;;;;;;29.90;18.83;;;27.00;96.30;;;;;;5046617;28;20483;-78
2022/08/19 06:36:37;;;;;;;26.07;21.63;;;26.70;96.80;;;;;;5045504;28;20533;-74
2022/08/19 06:39:09;;;;;;;25.87;15.90;;;26.90;96.30;;;;;;5050597;28;20446;-76
2022/08/19 06:41:41;;;;;;;22.47;16.27;;;27.40;95.60;;;;;;5047646;28;20458;-78
2022/08/19 06:44:09;;;;;;;21.87;16.47;;;28.00;94.30;;;;;;5048354;28;20505;-79
2022/08/19 06:46:36;;;;;;;18.93;15.50;;;28.40;94.30;;;;;;5051859;28;20439;-76
2022/08/19 06:49:04;;;;;;;20.93;15.20;;;28.90;92.10;;;;;;5051192;28;20478;-76
2022/08/19 06:51:32;;;;;;;20.03;15.83;;;29.30;91.40;;;;;;5049394;28;20447;-80
2022/08/19 06:53:59;;;;;;;16.30;12.77;;;29.10;91.00;;;;;;5049177;28;20897;-78
2022/08/19 06:56:34;;;;;;;17.20;11.90;;;29.10;91.10;;;;;;5056497;28;20536;-79
2022/08/19 06:59:03;;;;;;;16.97;10.90;;;29.60;90.50;;;;;;5055433;28;20468;-77
2022/08/19 07:01:30;;;;;;;14.30;8.60;;;30.10;88.70;;;;;;5054425;28;20918;-78
2022/08/19 07:03:57;;;;;;;10.43;9.27;;;30.30;90.30;;;;;;5051166;28;20468;-77
2022/08/19 07:06:24;;;;;;;15.80;9.40;;;30.20;90.20;;;;;;5047164;28;20481;-79
2022/08/19 07:08:51;;;;;;;10.57;9.47;;;29.80;90.00;;;;;;5052790;28;20470;-79
2022/08/19 07:11:20;;;;;;;10.23;8.33;;;29.20;89.20;;;;;;5049398;28;20470;-79
2022/08/19 07:13:48;;;;;;;9.83;8.63;;;28.60;90.70;;;;;;5048140;28;20968;-78
2022/08/19 07:16:20;;;;;;;13.63;9.50;;;28.30;91.30;;;;;;5052432;28;20968;-79
2022/08/19 07:18:48;;;;;;;9.20;7.00;;;28.50;91.30;;;;;;5050349;28;20896;-80
2022/08/19 07:21:17;;;;;;;15.13;10.80;;;28.70;90.40;;;;;;5054830;28;20450;-79
2022/08/19 07:23:44;;;;;;;10.43;8.43;;;29.20;90.20;;;;;;5057325;28;20458;-79
2022/08/19 07:26:14;;;;;;;13.37;10.93;;;30.10;87.70;;;;;;5059612;28;20453;-79
2022/08/19 07:28:42;;;;;;;7.07;6.20;;;30.90;85.10;;;;;;5057456;28;20453;-81
2022/08/19 07:31:11;;;;;;;8.63;6.43;;;31.70;82.00;;;;;;5057216;28;20473;-79
2022/08/19 07:33:42;;;;;;;6.90;6.20;;;32.10;81.00;;;;;;5056562;28;20465;-81
2022/08/19 07:36:16;;;;;;;11.73;10.63;;;32.20;78.90;;;;;;5064528;28;20517;-81
2022/08/19 07:38:47;;;;;;;9.83;7.80;;;32.40;79.00;;;;;;5058383;28;20434;-81
2022/08/19 07:41:17;;;;;;;5.90;5.20;;;32.30;78.20;;;;;;5070051;28;20423;-81
2022/08/19 07:43:46;;;;;;;9.27;8.23;;;31.70;78.30;;;;;;5066015;28;20469;-79
2022/08/19 07:46:14;;;;;;;6.07;5.20;;;31.70;79.90;;;;;;5057208;28;20549;-81
2022/08/19 07:48:46;;;;;;;8.30;7.50;;;31.70;78.50;;;;;;5055347;28;20434;-80
2022/08/19 07:51:14;;;;;;;8.77;7.90;;;31.60;78.20;;;;;;5056582;28;20450;-81
2022/08/19 07:53:44;;;;;;;6.30;5.70;;;31.70;78.40;;;;;;5055020;28;20472;-79
2022/08/19 07:56:12;;;;;;;5.80;4.70;;;32.00;78.00;;;;;;5048392;28;20519;-79
2022/08/19 07:58:41;;;;;;;5.40;4.77;;;32.50;76.60;;;;;;5055436;28;20450;-81
2022/08/19 08:01:10;;;;;;;7.93;4.77;;;32.90;74.60;;;;;;5048728;28;20454;-78
2022/08/19 08:09:11;;;;;;;4.80;4.40;;;32.40;75.40;;;;;;5053915;28;20488;-82
2022/08/19 08:11:38;;;;;;;4.33;3.93;;;33.30;73.40;;;;;;5050615;28;20461;-82
2022/08/19 08:14:07;;;;;;;10.30;6.13;;;34.60;72.20;;;;;;5067324;28;20986;-81
2022/08/19 08:16:36;;;;;;;7.10;6.40;;;35.90;68.50;;;;;;5060551;28;20545;-81
2022/08/19 08:19:06;;;;;;;7.93;6.97;;;36.00;65.80;;;;;;5056498;28;20441;-80
2022/08/19 08:21:35;;;;;;;5.40;4.90;;;35.30;66.30;;;;;;5053773;28;20453;-80
2022/08/19 08:24:02;;;;;;;7.50;5.97;;;34.40;66.70;;;;;;5059846;28;20469;-79
2022/08/19 08:26:28;;;;;;;6.50;4.63;;;34.10;67.20;;;;;;5055001;28;20474;-81
2022/08/19 08:28:56;;;;;;;5.50;3.60;;;33.30;68.30;;;;;;5055007;28;20473;-81
2022/08/19 08:31:23;;;;;;;4.07;3.70;;;32.50;69.60;;;;;;5052769;28;20808;-81
2022/08/19 08:33:50;;;;;;;8.03;4.57;;;31.80;71.10;;;;;;5054763;28;20552;-81
2022/08/19 08:36:17;;;;;;;5.53;4.93;;;31.50;73.10;;;;;;5053643;28;20513;-80
2022/08/19 08:38:46;;;;;;;5.53;4.00;;;31.20;73.50;;;;;;5054937;28;20512;-82
2022/08/19 08:41:23;;;;;;;10.70;3.40;;;31.30;74.30;;;;;;5054272;28;20500;-83
2022/08/19 08:43:53;;;;;;;5.10;4.60;;;31.20;74.10;;;;;;5055844;28;20466;-80
2022/08/19 08:46:26;;;;;;;10.00;5.10;;;31.20;75.30;;;;;;5064338;28;20503;-80
2022/08/19 08:48:58;;;;;;;10.07;3.73;;;31.40;74.80;;;;;;5056278;28;20544;-81
2022/08/19 08:51:30;;;;;;;5.47;3.53;;;31.90;73.90;;;;;;5052398;28;20458;-81
2022/08/19 08:53:58;;;;;;;5.07;3.40;;;32.60;72.30;;;;;;5062335;28;20466;-80
2022/08/19 08:56:26;;;;;;;4.73;3.63;;;32.60;71.90;;;;;;5046728;28;20965;-81
2022/08/19 08:58:59;;;;;;;10.10;4.13;;;32.70;71.20;;;;;;5052587;28;20454;-81
2022/08/19 09:01:27;;;;;;;3.73;3.40;;;32.80;71.20;;;;;;5057532;28;20470;-81
2022/08/19 09:03:56;;;;;;;4.27;2.93;;;33.60;69.20;;;;;;5058984;28;20530;-82
2022/08/19 09:06:30;;;;;;;7.23;3.87;;;34.60;67.80;;;;;;5063384;28;20912;-81
2022/08/19 09:09:03;;;;;;;5.10;3.67;;;35.20;65.30;;;;;;5064562;28;20535;-81
2022/08/19 09:11:49;;;;;;;3.70;3.13;;;35.50;63.50;;;;;;5065154;28;20442;-81
2022/08/19 09:14:28;;;;;;;9.53;3.17;;;35.00;64.10;;;;;;5065710;28;20469;-80
2022/08/19 09:16:55;;;;;;;3.80;3.37;;;35.40;64.10;;;;;;5026639;28;20469;-80
2022/08/19 09:19:23;;;;;;;5.03;3.77;;;36.00;63.40;;;;;;5056603;28;20501;-82
2022/08/19 09:21:50;;;;;;;5.23;3.33;;;35.60;61.20;;;;;;5053738;28;20431;-80
2022/08/19 09:24:18;;;;;;;4.00;3.43;;;34.70;62.70;;;;;;5057006;28;20549;-80
2022/08/19 09:26:46;;;;;;;3.10;2.77;;;34.20;63.30;;;;;;5055435;28;20499;-79
2022/08/19 09:29:13;;;;;;;4.30;2.50;;;33.90;64.40;;;;;;5063221;28;20442;-80
2022/08/19 09:31:40;;;;;;;4.80;2.70;;;33.80;65.00;;;;;;5064648;28;20449;-77
2022/08/19 09:34:08;;;;;;;3.63;3.33;;;34.00;64.90;;;;;;5063774;28;20481;-81
2022/08/19 09:36:38;;;;;;;4.90;2.90;;;33.90;64.20;;;;;;5058743;28;20471;-79
2022/08/19 09:39:06;;;;;;;3.17;2.80;;;34.10;65.20;;;;;;5056106;28;20450;-81
2022/08/19 09:41:35;;;;;;;4.37;3.97;;;34.10;65.20;;;;;;5057269;28;20935;-80
2022/08/19 09:44:02;;;;;;;5.97;4.37;;;34.00;63.40;;;;;;5058397;28;20485;-78
2022/08/19 09:46:31;;;;;;;6.20;3.37;;;33.30;64.70;;;;;;5067889;28;20473;-80
2022/08/19 09:49:00;;;;;;;8.33;3.27;;;32.90;66.20;;;;;;5051934;28;20498;-80
2022/08/19 09:51:29;;;;;;;5.87;3.60;;;32.20;67.80;;;;;;5051385;28;20430;-79
2022/08/19 09:54:01;;;;;;;5.57;3.13;;;32.30;67.80;;;;;;5050975;28;20499;-80
2022/08/19 09:56:29;;;;;;;5.57;3.40;;;32.80;67.10;;;;;;5056960;28;20509;-79
2022/08/19 09:58:59;;;;;;;3.60;3.00;;;33.20;66.30;;;;;;5058044;28;20529;-78
2022/08/19 10:01:29;;;;;;;4.37;2.70;;;33.10;64.30;;;;;;5061675;28;20430;-80
2022/08/19 10:03:58;;;;;;;3.40;2.27;;;32.90;64.80;;;;;;5059153;28;20980;-81
2022/08/19 10:06:29;;;;;;;3.00;2.53;;;32.70;64.60;;;;;;5045251;28;20442;-80
2022/08/19 10:08:57;;;;;;;3.17;2.70;;;33.00;63.70;;;;;;5056470;28;20480;-80
2022/08/19 10:11:26;;;;;;;3.70;2.60;;;33.20;64.00;;;;;;5054052;28;20443;-81
2022/08/19 10:13:53;;;;;;;4.40;2.90;;;34.00;63.30;;;;;;5064859;28;20470;-80
2022/08/19 10:16:24;;;;;;;3.30;2.13;;;34.00;62.10;;;;;;5048626;28;20859;-81
2022/08/19 10:18:51;;;;;;;2.47;2.10;;;33.60;62.20;;;;;;5047335;28;20507;-80
2022/08/19 10:21:26;;;;;;;4.43;2.10;;;33.60;63.00;;;;;;5048778;28;20451;-76
2022/08/19 10:23:57;;;;;;;4.20;2.40;;;33.90;63.00;;;;;;5042900;28;20505;-80
2022/08/19 10:26:27;;;;;;;4.90;2.90;;;34.30;61.40;;;;;;5053586;28;20438;-80
2022/08/19 10:28:55;;;;;;;2.97;2.23;;;34.30;61.60;;;;;;5055965;28;20454;-80
2022/08/19 10:31:26;;;;;;;3.10;2.23;;;34.00;62.00;;;;;;5054444;28;20813;-80
2022/08/19 10:33:56;;;;;;;4.60;2.77;;;33.90;61.80;;;;;;5054899;28;20473;-80
2022/08/19 10:36:25;;;;;;;9.83;6.50;;;33.40;62.10;;;;;;5063118;28;20487;-83
2022/08/19 10:39:01;;;;;;;7.40;2.30;;;32.70;63.50;;;;;;5069828;28;20438;-82
2022/08/19 10:41:30;;;;;;;4.33;2.10;;;32.10;63.70;;;;;;5051464;28;20497;-81
2022/08/19 10:44:00;;;;;;;5.50;2.43;;;31.90;65.10;;;;;;5052923;28;20469;-82
2022/08/19 10:46:31;;;;;;;5.40;2.67;;;31.20;64.90;;;;;;5057575;28;20457;-82
2022/08/19 10:48:58;;;;;;;7.67;2.57;;;30.50;67.10;;;;;;5056174;28;20889;-80
2022/08/19 10:54:10;;;;;;;7.83;2.23;;;30.00;67.80;;;;;;5057032;28;20436;-80
2022/08/19 10:56:52;;;;;;;4.93;1.90;;;29.80;69.40;;;;;;5048826;28;20504;-79
2022/08/19 10:59:21;;;;;;;3.00;2.13;;;29.70;68.80;;;;;;5056387;28;20537;-81
2022/08/19 11:01:51;;;;;;;3.50;2.33;;;29.50;69.80;;;;;;5056490;28;20442;-80
2022/08/19 11:04:19;;;;;;;3.57;3.03;;;29.50;70.40;;;;;;5054817;28;20541;-80
2022/08/19 11:06:48;;;;;;;6.07;2.30;;;29.50;70.50;;;;;;5059563;28;20861;-79
2022/08/19 11:09:23;;;;;;;8.57;1.77;;;29.40;69.70;;;;;;5048307;28;20549;-80
2022/08/19 11:11:52;;;;;;;3.20;2.03;;;29.00;68.70;;;;;;5060086;28;20433;-80
2022/08/19 11:14:22;;;;;;;2.10;1.70;;;28.70;70.20;;;;;;5050447;28;20467;-80
2022/08/19 11:16:51;;;;;;;4.40;1.80;;;28.70;71.00;;;;;;5056063;28;20478;-80
2022/08/19 11:19:19;;;;;;;6.90;1.90;;;28.70;68.80;;;;;;5048235;28;20933;-81
2022/08/19 11:21:49;;;;;;;3.97;2.73;;;28.50;69.30;;;;;;5051037;28;20948;-81
2022/08/19 11:24:20;;;;;;;8.73;3.00;;;28.60;69.90;;;;;;5055770;28;20548;-80
2022/08/19 11:26:49;;;;;;;2.20;1.50;;;28.70;69.70;;;;;;5049850;28;20473;-80
2022/08/19 11:29:17;;;;;;;5.83;1.80;;;28.90;69.20;;;;;;5058012;28;20469;-80
2022/08/19 11:31:47;;;;;;;5.17;1.87;;;28.70;68.80;;;;;;5060130;28;20732;-80
2022/08/19 11:34:19;;;;;;;2.80;1.63;;;28.70;69.60;;;;;;5056358;28;20556;-79
2022/08/19 11:36:48;;;;;;;1.70;1.40;;;28.80;68.40;;;;;;5042435;28;20504;-80
2022/08/19 11:39:17;;;;;;;3.10;1.83;;;28.70;67.10;;;;;;5055720;28;20526;-80
2022/08/19 11:41:44;;;;;;;3.23;1.10;;;28.40;67.90;;;;;;5054958;28;20450;-81
2022/08/19 11:44:13;;;;;;;9.23;1.30;;;28.40;67.20;;;;;;5055224;28;20964;-80
2022/08/19 11:46:45;;;;;;;4.97;1.50;;;28.50;67.20;;;;;;5062707;28;20446;-79
2022/08/19 11:49:12;;;;;;;3.47;1.27;;;28.50;67.90;;;;;;5058182;28;20481;-79
2022/08/19 11:51:42;;;;;;;3.13;1.33;;;28.50;67.70;;;;;;5066378;28;20500;-78
2022/08/19 11:54:11;;;;;;;4.13;2.20;;;28.50;68.40;;;;;;5063065;28;20462;-78
2022/08/19 11:56:38;;;;;;;8.87;2.10;;;28.50;68.10;;;;;;5060169;28;20477;-80
2022/08/19 11:59:05;;;;;;;2.80;1.47;;;28.50;69.30;;;;;;5057833;28;20458;-80
2022/08/19 12:01:33;;;;;;;3.50;1.97;;;28.60;69.60;;;;;;5059009;28;20489;-80
2022/08/19 12:04:00;;;;;;;4.03;1.10;;;28.50;68.50;;;;;;5069597;28;20442;-79
2022/08/19 12:06:31;;;;;;;2.43;1.60;;;28.50;69.30;;;;;;5073177;28;20499;-80
2022/08/19 12:09:03;;;;;;;6.23;1.87;;;28.50;68.90;;;;;;5059474;28;20457;-78
2022/08/19 12:11:30;;;;;;;2.50;1.40;;;28.40;68.70;;;;;;5045519;28;20865;-78
2022/08/19 12:13:59;;;;;;;3.97;1.70;;;28.30;69.40;;;;;;5045310;28;20462;-76
2022/08/19 12:16:28;;;;;;;1.97;1.20;;;28.30;68.50;;;;;;5048121;28;20478;-76
2022/08/19 12:19:03;;;;;;;5.00;1.30;;;28.40;69.10;;;;;;5043226;28;20523;-77
2022/08/19 12:21:32;;;;;;;2.50;1.60;;;28.40;67.10;;;;;;5046186;28;20484;-77
2022/08/19 12:24:02;;;;;;;3.40;1.83;;;28.40;67.50;;;;;;5049453;28;20864;-79
2022/08/19 12:26:31;;;;;;;3.77;2.03;;;28.40;67.80;;;;;;5059471;28;20518;-79
2022/08/19 12:28:59;;;;;;;2.73;1.83;;;28.30;67.40;;;;;;5054363;28;20446;-79
2022/08/19 12:31:27;;;;;;;3.83;1.47;;;28.20;68.20;;;;;;5052201;28;20450;-78
2022/08/19 12:33:55;;;;;;;3.57;1.47;;;28.10;69.00;;;;;;5052406;28;20823;-78
2022/08/19 12:36:24;;;;;;;6.03;2.20;;;28.00;69.50;;;;;;5052757;28;20505;-78
2022/08/19 12:38:51;;;;;;;7.60;1.30;;;28.10;68.60;;;;;;5054443;28;20446;-78
2022/08/19 12:41:22;;;;;;;2.53;1.80;;;28.10;68.90;;;;;;5052329;28;20452;-79
2022/08/19 12:43:50;;;;;;;2.83;1.27;;;28.10;69.40;;;;;;5049968;28;20502;-79
2022/08/19 12:46:18;;;;;;;4.83;1.57;;;28.10;68.90;;;;;;5051138;28;20878;-79
2022/08/19 12:48:45;;;;;;;3.70;1.63;;;28.10;69.10;;;;;;5050953;28;20446;-79
2022/08/19 12:51:15;;;;;;;6.20;5.60;;;28.20;68.90;;;;;;5046243;28;20478;-79
2022/08/19 12:53:43;;;;;;;5.13;2.00;;;28.30;69.00;;;;;;5050866;28;20524;-78
2022/08/19 12:56:12;;;;;;;7.30;1.80;;;28.20;68.70;;;;;;5053341;28;20569;-79
2022/08/19 12:58:42;;;;;;;4.27;2.40;;;28.20;68.30;;;;;;5059084;28;20477;-79
2022/08/19 13:01:11;;;;;;;3.20;1.23;;;28.10;67.80;;;;;;5054540;28;20477;-79
2022/08/19 13:03:41;;;;;;;3.60;3.00;;;28.10;67.10;;;;;;5055261;28;21035;-77
2022/08/19 13:06:09;;;;;;;1.97;1.40;;;28.10;67.90;;;;;;5053571;28;20518;-77